createdAt,value
2023-03-27T00:00:35.497Z,75.40
2023-03-27T00:03:18.776Z,75.56
2023-03-27T00:06:09.434Z,75.77
2023-03-27T00:08:53.641Z,76.18
2023-03-27T00:11:42.367Z,76.44
2023-03-27T00:14:25.001Z,76.27
2023-03-27T00:17:13.422Z,77.02
2023-03-27T00:19:55.727Z,76.32
2023-03-27T00:22:44.437Z,76.26
2023-03-27T00:25:27.886Z,76.79
2023-03-27T00:28:16.415Z,77.21
2023-03-27T00:30:59.594Z,77.86
2023-03-27T00:33:49.355Z,77.79
2023-03-27T00:36:39.361Z,76.61
2023-03-27T00:39:28.954Z,75.60
2023-03-27T00:42:11.426Z,74.89
2023-03-27T00:45:00.576Z,74.70
2023-03-27T00:47:49.405Z,75.97
2023-03-27T00:50:44.317Z,75.57
2023-03-27T00:53:36.372Z,75.32
2023-03-27T00:56:26.322Z,75.55
2023-03-27T00:59:15.339Z,75.43
2023-03-27T01:02:05.359Z,75.54
2023-03-27T01:04:49.004Z,74.68
2023-03-27T01:07:37.388Z,75.01
2023-03-27T01:10:27.166Z,74.08
2023-03-27T01:13:27.437Z,74.87
2023-03-27T01:16:18.520Z,75.01
2023-03-27T01:19:32.409Z,75.22
2023-03-27T01:22:41.826Z,75.38
2023-03-27T01:25:57.482Z,75.56
2023-03-27T01:28:45.679Z,74.55
2023-03-27T01:31:45.488Z,74.36
2023-03-27T01:34:43.727Z,74.72
2023-03-27T01:38:17.429Z,74.15
2023-03-27T01:41:17.392Z,74.23
2023-03-27T01:44:43.380Z,74.21
2023-03-27T01:47:42.793Z,73.94
2023-03-27T01:50:57.556Z,73.05
2023-03-27T01:53:55.320Z,71.30
2023-03-27T01:56:53.521Z,69.22
2023-03-27T02:00:18.583Z,65.95
2023-03-27T02:03:35.365Z,63.32
2023-03-27T02:06:44.365Z,62.88
2023-03-27T02:09:42.658Z,58.15
2023-03-27T02:12:32.423Z,55.83
2023-03-27T02:15:24.111Z,54.24
2023-03-27T02:18:17.405Z,51.59
2023-03-27T02:21:00.852Z,51.06
2023-03-27T02:23:51.321Z,48.12
2023-03-27T02:26:41.653Z,48.18
2023-03-27T02:29:58.374Z,48.56
2023-03-27T02:32:49.421Z,45.10
2023-03-27T02:35:42.387Z,47.11
2023-03-27T02:38:33.444Z,45.57
2023-03-27T02:41:41.780Z,44.84
2023-03-27T02:44:32.728Z,47.20
2023-03-27T02:47:37.432Z,48.60
2023-03-27T02:51:08.816Z,49.28
2023-03-27T02:54:03.360Z,50.39
2023-03-27T02:57:00.059Z,51.50
2023-03-27T03:00:05.411Z,50.74
2023-03-27T03:02:54.466Z,51.62
2023-03-27T03:05:45.433Z,52.63
2023-03-27T03:08:39.438Z,53.04
2023-03-27T03:11:22.309Z,52.87
2023-03-27T03:14:10.622Z,51.66
2023-03-27T03:16:53.433Z,52.12
2023-03-27T03:19:42.427Z,55.01
2023-03-27T03:22:24.632Z,52.99
2023-03-27T03:25:16.430Z,53.83
2023-03-27T03:28:01.456Z,52.53
2023-03-27T03:30:53.384Z,51.92
2023-03-27T03:33:37.172Z,53.72
2023-03-27T03:36:26.369Z,53.12
2023-03-27T03:39:08.765Z,53.80
2023-03-27T03:42:02.378Z,54.09
2023-03-27T03:44:51.690Z,53.88
2023-03-27T03:47:47.293Z,53.10
2023-03-27T03:50:38.368Z,52.82
2023-03-27T03:53:22.809Z,53.20
2023-03-27T03:56:11.365Z,52.79
2023-03-27T03:58:58.648Z,52.20
2023-03-27T04:01:49.330Z,51.64
2023-03-27T04:04:46.504Z,52.06
2023-03-27T04:07:45.312Z,52.11
2023-03-27T04:10:55.462Z,53.20
2023-03-27T04:13:55.479Z,51.36
2023-03-27T04:16:50.312Z,52.34
2023-03-27T04:19:41.398Z,52.74
2023-03-27T04:22:24.648Z,52.60
2023-03-27T04:25:15.461Z,52.17
2023-03-27T04:27:58.650Z,53.23
2023-03-27T04:30:58.652Z,52.38
2023-03-27T04:34:04.117Z,52.72
2023-03-27T04:37:23.093Z,52.92
2023-03-27T04:40:21.966Z,51.07
2023-03-27T04:43:10.379Z,49.43
2023-03-27T04:45:52.598Z,49.55
2023-03-27T04:48:42.417Z,47.54
2023-03-27T04:51:42.366Z,47.66
2023-03-27T04:54:32.839Z,46.75
2023-03-27T04:57:15.320Z,48.20
2023-03-27T04:59:59.350Z,48.52
2023-03-27T05:03:02.488Z,46.22
2023-03-27T05:06:00.621Z,46.92
2023-03-27T05:08:52.441Z,46.30
2023-03-27T05:11:46.394Z,44.35
2023-03-27T05:14:30.664Z,44.79
2023-03-27T05:17:20.354Z,43.55
2023-03-27T05:20:02.886Z,42.87
2023-03-27T05:22:52.353Z,41.21
2023-03-27T05:25:44.287Z,45.79
2023-03-27T05:28:34.308Z,43.31
2023-03-27T05:31:23.458Z,41.90
2023-03-27T05:34:29.700Z,40.69
2023-03-27T05:37:20.332Z,40.99
2023-03-27T05:40:23.095Z,41.82
2023-03-27T05:43:13.342Z,42.97
2023-03-27T05:45:55.788Z,39.69
2023-03-27T05:48:46.788Z,41.24
2023-03-27T05:51:37.013Z,41.32
2023-03-27T05:54:20.352Z,36.30
2023-03-27T05:57:14.401Z,39.77
2023-03-27T06:00:02.822Z,38.06
2023-03-27T06:02:57.537Z,39.33
2023-03-27T06:06:02.129Z,41.19
2023-03-27T06:08:52.399Z,38.84
2023-03-27T06:11:35.693Z,39.94
2023-03-27T06:14:24.406Z,36.05
2023-03-27T06:17:26.858Z,39.56
2023-03-27T06:20:20.316Z,39.71
2023-03-27T06:23:14.298Z,41.19
2023-03-27T06:26:03.657Z,39.29
2023-03-27T06:28:47.361Z,34.21
2023-03-27T06:31:37.227Z,40.67
2023-03-27T06:34:26.404Z,40.53
2023-03-27T06:37:37.832Z,41.55
2023-03-27T06:40:33.362Z,37.72
2023-03-27T06:43:25.422Z,38.63
2023-03-27T06:46:27.583Z,39.07
2023-03-27T06:49:46.374Z,40.55
2023-03-27T06:52:38.345Z,34.49
2023-03-27T06:55:41.733Z,38.83
2023-03-27T06:58:31.366Z,36.91
2023-03-27T07:01:15.685Z,38.53
2023-03-27T07:04:44.254Z,38.30
2023-03-27T07:07:35.657Z,37.73
2023-03-27T07:10:25.423Z,37.74
2023-03-27T07:13:17.358Z,37.76
2023-03-27T07:16:05.837Z,38.54
2023-03-27T07:18:49.322Z,40.33
2023-03-27T07:21:33.199Z,35.08
2023-03-27T07:24:25.402Z,38.26
2023-03-27T07:27:13.612Z,36.85
2023-03-27T07:29:56.402Z,36.01
2023-03-27T07:32:49.844Z,36.55
2023-03-27T07:35:33.570Z,35.72
2023-03-27T07:38:35.343Z,37.17
2023-03-27T07:41:39.388Z,32.48
2023-03-27T07:44:30.710Z,34.61
2023-03-27T07:47:22.352Z,30.50
2023-03-27T07:50:07.389Z,35.54
2023-03-27T07:52:57.399Z,37.77
2023-03-27T07:55:47.281Z,34.36
2023-03-27T07:58:30.473Z,36.62
2023-03-27T08:01:12.712Z,35.33
2023-03-27T08:04:02.494Z,38.34
2023-03-27T08:06:54.315Z,37.38
2023-03-27T08:09:37.630Z,38.42
2023-03-27T08:12:27.315Z,35.32
2023-03-27T08:15:10.608Z,35.19
2023-03-27T08:18:04.471Z,36.62
2023-03-27T08:20:46.649Z,37.42
2023-03-27T08:23:38.346Z,37.11
2023-03-27T08:26:39.580Z,37.56
2023-03-27T08:29:28.350Z,36.55
2023-03-27T08:32:21.401Z,36.19
2023-03-27T08:35:10.615Z,35.40
2023-03-27T08:37:54.506Z,35.05
2023-03-27T08:40:44.417Z,36.34
2023-03-27T08:43:52.414Z,36.79
2023-03-27T08:47:08.262Z,34.54
2023-03-27T08:50:18.335Z,35.06
2023-03-27T08:53:31.775Z,36.72
2023-03-27T08:56:25.437Z,35.43
2023-03-27T08:59:21.639Z,33.01
2023-03-27T09:02:24.394Z,35.22
2023-03-27T09:05:37.579Z,35.54
2023-03-27T09:08:32.436Z,35.52
2023-03-27T09:11:21.918Z,34.06
2023-03-27T09:14:13.346Z,34.16
2023-03-27T09:17:05.825Z,34.18
2023-03-27T09:19:54.340Z,33.26
2023-03-27T09:22:45.296Z,34.42
2023-03-27T09:26:03.444Z,34.48
2023-03-27T09:29:24.307Z,35.45
2023-03-27T09:32:33.677Z,34.47
2023-03-27T09:35:25.772Z,34.15
2023-03-27T09:38:11.284Z,33.92
2023-03-27T09:41:10.725Z,32.34
2023-03-27T09:44:14.342Z,36.16
2023-03-27T09:47:22.190Z,36.09
2023-03-27T09:50:38.606Z,36.11
2023-03-27T09:53:44.100Z,33.22
2023-03-27T09:56:37.412Z,34.51
2023-03-27T09:59:45.393Z,34.44
2023-03-27T10:02:32.677Z,32.92
2023-03-27T10:05:33.671Z,37.09
2023-03-27T10:08:53.861Z,36.97
2023-03-27T10:11:48.426Z,35.77
2023-03-27T10:14:43.856Z,34.44
2023-03-27T10:17:53.536Z,36.49
2023-03-27T10:20:43.606Z,35.58
2023-03-27T10:23:47.373Z,33.89
2023-03-27T10:27:00.287Z,35.40
2023-03-27T10:29:52.379Z,34.60
2023-03-27T10:32:48.969Z,35.92
2023-03-27T10:36:05.384Z,34.97
2023-03-27T10:39:04.295Z,34.42
2023-03-27T10:41:58.671Z,34.13
2023-03-27T10:44:51.386Z,34.83
2023-03-27T10:47:40.587Z,35.15
2023-03-27T10:50:38.325Z,34.86
2023-03-27T10:53:40.322Z,36.00
2023-03-27T10:56:40.349Z,35.96
2023-03-27T10:59:41.603Z,35.12
2023-03-27T11:03:21.270Z,35.67
2023-03-27T11:06:14.628Z,37.00
2023-03-27T11:09:34.358Z,36.02
2023-03-27T11:12:21.724Z,36.78
2023-03-27T11:15:27.303Z,36.35
2023-03-27T11:18:31.791Z,36.95
2023-03-27T11:21:29.440Z,37.70
2023-03-27T11:24:19.594Z,34.94
2023-03-27T11:27:31.284Z,37.34
2023-03-27T11:30:26.758Z,36.96
2023-03-27T11:33:42.292Z,37.52
2023-03-27T11:36:49.410Z,35.74
2023-03-27T11:39:57.322Z,37.12
2023-03-27T11:42:43.663Z,36.76
2023-03-27T11:45:35.272Z,36.73
2023-03-27T11:48:47.274Z,35.42
2023-03-27T11:51:43.852Z,36.74
2023-03-27T11:55:14.280Z,36.58
2023-03-27T11:58:21.317Z,37.98
2023-03-27T12:01:27.388Z,37.33
2023-03-27T12:04:24.685Z,37.12
2023-03-27T12:07:36.185Z,38.46
2023-03-27T12:10:38.724Z,38.01
2023-03-27T12:14:02.429Z,39.30
2023-03-27T12:16:56.441Z,39.54
2023-03-27T12:20:13.567Z,38.50
2023-03-27T12:23:10.053Z,38.97
2023-03-27T12:26:51.309Z,39.48
2023-03-27T12:29:58.200Z,39.08
2023-03-27T12:33:12.389Z,38.95
2023-03-27T12:36:06.767Z,39.38
2023-03-27T12:38:51.498Z,39.80
2023-03-27T12:41:50.580Z,39.97
2023-03-27T12:45:13.387Z,40.39
2023-03-27T12:48:17.321Z,40.87
2023-03-27T12:51:00.721Z,40.71
2023-03-27T12:54:00.363Z,40.67
2023-03-27T12:56:51.499Z,41.37
2023-03-27T13:00:11.492Z,41.16
2023-03-27T13:03:12.417Z,41.65
2023-03-27T13:06:23.695Z,42.07
2023-03-27T13:09:27.374Z,41.23
2023-03-27T13:12:36.517Z,41.94
2023-03-27T13:15:39.816Z,42.28
2023-03-27T13:18:52.146Z,42.33
2023-03-27T13:21:53.564Z,42.68
2023-03-27T13:25:00.369Z,42.93
2023-03-27T13:27:58.185Z,42.66
2023-03-27T13:30:56.537Z,42.57
2023-03-27T13:34:42.700Z,43.17
2023-03-27T13:37:38.298Z,44.34
2023-03-27T13:40:39.294Z,44.17
2023-03-27T13:43:36.365Z,44.61
2023-03-27T13:46:41.746Z,45.50
2023-03-27T13:50:14.504Z,45.58
2023-03-27T13:53:33.936Z,45.07
2023-03-27T13:56:52.417Z,45.64
2023-03-27T14:00:23.946Z,45.62
2023-03-27T14:03:48.435Z,47.08
2023-03-27T14:06:45.570Z,47.52
2023-03-27T14:09:55.486Z,49.65
2023-03-27T14:13:10.143Z,49.56
2023-03-27T14:16:18.409Z,50.69
2023-03-27T14:19:14.606Z,50.86
2023-03-27T14:22:12.371Z,51.85
2023-03-27T14:25:13.603Z,51.42
2023-03-27T14:28:09.426Z,51.89
2023-03-27T14:30:55.574Z,51.00
2023-03-27T14:34:05.521Z,51.62
2023-03-27T14:36:53.053Z,51.65
2023-03-27T14:39:50.388Z,52.95
2023-03-27T14:42:49.312Z,54.11
2023-03-27T14:45:47.483Z,54.31
2023-03-27T14:48:47.123Z,55.16
2023-03-27T14:51:35.532Z,56.51
2023-03-27T14:54:28.352Z,56.90
2023-03-27T14:57:26.326Z,57.87
2023-03-27T15:00:30.888Z,57.88
2023-03-27T15:03:24.457Z,58.69
2023-03-27T15:06:28.599Z,58.91
2023-03-27T15:09:20.679Z,58.44
2023-03-27T15:12:14.882Z,59.47
2023-03-27T15:15:07.371Z,59.79
2023-03-27T15:18:07.554Z,59.66
2023-03-27T15:20:51.894Z,59.02
2023-03-27T15:24:08.487Z,60.32
2023-03-27T15:26:51.878Z,58.08
2023-03-27T15:30:06.365Z,59.81
2023-03-27T15:32:56.309Z,59.70
2023-03-27T15:35:52.314Z,59.98
2023-03-27T15:38:38.784Z,60.71
2023-03-27T15:41:40.302Z,61.39
2023-03-27T15:44:29.770Z,62.46
2023-03-27T15:47:33.337Z,61.01
2023-03-27T15:50:35.252Z,61.27
2023-03-27T15:53:41.337Z,62.99
2023-03-27T15:56:47.744Z,63.14
2023-03-27T15:59:51.813Z,62.07
2023-03-27T16:02:42.384Z,63.91
2023-03-27T16:05:25.385Z,65.34
2023-03-27T16:08:16.287Z,64.21
2023-03-27T16:10:59.870Z,64.53
2023-03-27T16:13:52.043Z,65.22
2023-03-27T16:16:44.276Z,64.24
2023-03-27T16:19:27.538Z,64.81
2023-03-27T16:22:16.690Z,65.55
2023-03-27T16:27:55.364Z,66.43
2023-03-27T16:30:40.435Z,67.02
2023-03-27T16:33:18.437Z,67.45
2023-03-27T16:35:48.950Z,67.03
2023-03-27T16:38:20.101Z,67.68
2023-03-27T16:40:50.915Z,67.81
2023-03-27T16:43:21.283Z,68.01
2023-03-27T16:45:51.992Z,67.90
2023-03-27T16:48:24.245Z,68.24
2023-03-27T16:50:54.133Z,67.84
2023-03-27T16:53:23.665Z,67.32
2023-03-27T16:55:58.907Z,67.62
2023-03-27T16:58:29.812Z,69.14
2023-03-27T17:00:59.985Z,68.68
2023-03-27T17:03:30.497Z,69.40
2023-03-27T17:06:05.203Z,69.71
2023-03-27T17:08:36.313Z,69.81
2023-03-27T17:11:13.650Z,69.81
2023-03-27T17:13:44.613Z,69.81
2023-03-27T17:16:14.575Z,71.29
2023-03-27T17:18:44.566Z,70.58
2023-03-27T17:21:14.196Z,69.93
2023-03-27T17:23:45.101Z,70.52
2023-03-27T17:26:16.036Z,70.27
2023-03-27T17:28:46.007Z,70.55
2023-03-27T17:31:16.176Z,70.70
2023-03-27T17:33:46.544Z,71.06
2023-03-27T17:36:23.897Z,70.80
2023-03-27T17:39:02.473Z,71.23
2023-03-27T17:41:33.265Z,71.01
2023-03-27T17:44:03.741Z,71.06
2023-03-27T17:46:34.668Z,70.60
2023-03-27T17:49:04.894Z,71.35
2023-03-27T17:51:36.795Z,71.10
2023-03-27T17:54:07.217Z,71.22
2023-03-27T17:56:38.911Z,71.06
2023-03-27T17:59:11.451Z,70.61
2023-03-27T18:01:42.136Z,70.73
2023-03-27T18:04:13.648Z,70.48
2023-03-27T18:06:44.119Z,70.52
2023-03-27T18:09:15.530Z,70.69
2023-03-27T18:11:46.937Z,70.96
2023-03-27T18:14:17.789Z,70.58
2023-03-27T18:16:47.474Z,71.17
2023-03-27T18:19:17.931Z,70.56
2023-03-27T18:21:48.470Z,71.25
2023-03-27T18:24:18.301Z,71.44
2023-03-27T18:26:49.668Z,71.50
2023-03-27T18:29:22.322Z,71.27
2023-03-27T18:31:53.526Z,71.17
2023-03-27T18:34:24.210Z,71.26
2023-03-27T18:36:55.665Z,71.24
2023-03-27T18:39:25.551Z,71.35
2023-03-27T18:41:56.222Z,71.43
2023-03-27T18:44:26.193Z,71.80
2023-03-27T18:46:56.785Z,71.17
2023-03-27T18:49:26.439Z,71.14
2023-03-27T18:51:56.379Z,72.00
2023-03-27T18:54:26.012Z,71.75
2023-03-27T18:56:55.669Z,71.43
2023-03-27T18:59:25.966Z,71.24
2023-03-27T19:01:56.127Z,70.64
2023-03-27T19:04:25.999Z,71.74
2023-03-27T19:06:55.739Z,71.79
2023-03-27T19:09:38.079Z,71.37
2023-03-27T19:12:12.346Z,71.75
2023-03-27T19:15:09.731Z,71.65
2023-03-27T19:18:10.042Z,72.13
2023-03-27T19:21:01.848Z,70.72
2023-03-27T19:23:44.858Z,70.64
2023-03-27T19:26:20.336Z,71.09
2023-03-27T19:28:50.012Z,71.65
2023-03-27T19:31:20.134Z,71.88
2023-03-27T19:33:49.874Z,72.15
2023-03-27T19:36:19.239Z,72.36
2023-03-27T19:38:49.674Z,72.10
2023-03-27T19:41:19.159Z,72.01
2023-03-27T19:43:48.569Z,71.60
2023-03-27T19:46:18.422Z,72.42
2023-03-27T19:48:50.848Z,73.15
2023-03-27T19:51:29.421Z,73.61
2023-03-27T19:53:58.684Z,74.03
2023-03-27T19:56:29.191Z,74.27
2023-03-27T19:58:58.854Z,74.80
2023-03-27T20:01:29.670Z,75.34
2023-03-27T20:04:00.264Z,75.24
2023-03-27T20:06:30.159Z,75.37
2023-03-27T20:09:01.316Z,75.64
2023-03-27T20:11:30.686Z,75.32
2023-03-27T20:14:00.235Z,75.44
2023-03-27T20:16:31.051Z,75.56
2023-03-27T20:19:04.698Z,75.94
2023-03-27T20:21:37.207Z,75.14
2023-03-27T20:24:10.869Z,75.00
2023-03-27T20:26:43.904Z,74.89
2023-03-27T20:29:19.772Z,75.35
2023-03-27T20:31:49.529Z,75.22
2023-03-27T20:34:20.383Z,75.75
2023-03-27T20:36:54.088Z,75.47
2023-03-27T20:39:39.742Z,75.83
2023-03-27T20:42:16.136Z,76.21
2023-03-27T20:45:00.644Z,76.39
2023-03-27T20:47:40.679Z,76.42
2023-03-27T20:50:10.683Z,76.81
2023-03-27T20:52:40.074Z,76.88
2023-03-27T20:55:17.379Z,77.44
2023-03-27T20:57:52.560Z,77.79
2023-03-27T21:00:22.962Z,77.56
2023-03-27T21:02:52.542Z,77.79
2023-03-27T21:05:21.965Z,77.94
2023-03-27T21:07:53.004Z,77.54
2023-03-27T21:10:22.565Z,78.00
2023-03-27T21:12:52.433Z,78.38
2023-03-27T21:15:21.920Z,78.34
2023-03-27T21:17:51.958Z,78.23
2023-03-27T21:20:21.477Z,78.21
2023-03-27T21:22:53.900Z,78.10
2023-03-27T21:25:24.296Z,78.02
2023-03-27T21:28:01.031Z,77.60
2023-03-27T21:30:47.111Z,77.33
2023-03-27T21:33:18.354Z,77.55
2023-03-27T21:35:49.639Z,77.59
2023-03-27T21:38:20.016Z,77.61
2023-03-27T21:40:49.891Z,77.65
2023-03-27T21:43:18.917Z,77.72
2023-03-27T21:45:50.958Z,78.01
2023-03-27T21:48:20.533Z,78.03
2023-03-27T21:50:49.700Z,78.45
2023-03-27T21:53:19.069Z,78.59
2023-03-27T21:55:48.289Z,79.01
2023-03-27T21:58:18.046Z,78.91
2023-03-27T22:00:47.865Z,78.44
2023-03-27T22:03:18.789Z,77.86
2023-03-27T22:05:57.366Z,77.84
2023-03-27T22:08:41.639Z,78.13
2023-03-27T22:11:12.806Z,78.56
2023-03-27T22:13:44.429Z,78.71
2023-03-27T22:16:17.361Z,78.85
2023-03-27T22:18:46.928Z,79.21
2023-03-27T22:21:24.663Z,79.10
2023-03-27T22:23:56.123Z,79.13
2023-03-27T22:26:30.281Z,79.39
2023-03-27T22:29:00.596Z,79.56
2023-03-27T22:31:30.836Z,79.83
2023-03-27T22:34:00.847Z,79.89
2023-03-27T22:36:29.872Z,79.78
2023-03-27T22:38:59.213Z,80.22
2023-03-27T22:41:28.835Z,79.73
2023-03-27T22:43:58.285Z,79.60
2023-03-27T22:46:27.757Z,79.09
2023-03-27T22:48:59.669Z,79.55
2023-03-27T22:51:32.412Z,79.83
2023-03-27T22:54:02.340Z,80.07
2023-03-27T22:56:31.819Z,79.70
2023-03-27T22:59:00.832Z,79.91
2023-03-27T23:01:30.323Z,79.81
2023-03-27T23:03:59.533Z,79.85
2023-03-27T23:06:28.886Z,79.77
2023-03-27T23:08:58.281Z,79.83
2023-03-27T23:11:27.419Z,80.19
2023-03-27T23:13:56.807Z,79.99
2023-03-27T23:16:26.570Z,79.59
2023-03-27T23:18:56.499Z,79.94
2023-03-27T23:21:25.499Z,79.75
2023-03-27T23:23:54.836Z,79.01
2023-03-27T23:26:24.031Z,78.99
2023-03-27T23:28:53.333Z,79.05
2023-03-27T23:31:23.037Z,79.40
2023-03-27T23:33:52.816Z,79.86
2023-03-27T23:36:24.820Z,80.02
2023-03-27T23:38:55.112Z,80.24
2023-03-27T23:41:25.081Z,80.43
2023-03-27T23:43:55.066Z,80.65
2023-03-27T23:46:24.454Z,80.60
2023-03-27T23:48:54.072Z,80.90
2023-03-27T23:51:23.660Z,81.16
2023-03-27T23:53:53.008Z,81.12
2023-03-27T23:56:22.886Z,81.61
2023-03-27T23:58:52.230Z,81.79
